Terminal Aerodrome Forecast
Issued by NWS

Home | Current Version | Previous Version | Text Only | Print | Product List | Glossary On
Versions: 1 2 3 4 5 6 7 8 9 10 11 12 13 14 15 16 17 18 19 20 21 22 23 24 25 26
930
FTUS45 KREV 092340
TAFTRK
TAF
KTRK 092340Z 1000/1024 18010G16KT P6SM SCT035 BKN180
     FM100500 19018G28KT P6SM VCSH SCT020 OVC035 WS020/25040KT
     FM100900 22020G35KT 5SM -RA BR SCT018 OVC025
     FM101200 20016G27KT 3SM RA BR SCT015 OVC020=

USA.gov is the U.S. government's official web portal to all federal, state and local government web resources and services.